createdAt,value
2022-08-09T00:00:00.734Z,98.70
2022-08-09T00:02:31.981Z,98.20
2022-08-09T00:05:03.507Z,98.30
2022-08-09T00:07:45.454Z,98.30
2022-08-09T00:10:18.002Z,98.50
2022-08-09T00:12:52.601Z,99.80
2022-08-09T00:15:35.447Z,98.80
2022-08-09T00:18:11.892Z,99.30
2022-08-09T00:20:41.482Z,99.90
2022-08-09T00:23:57.174Z,99.90
2022-08-09T00:26:04.945Z,99.40
2022-08-09T00:28:31.996Z,99.80
2022-08-09T00:31:02.425Z,99.60
2022-08-09T00:33:50.896Z,99.80
2022-08-09T00:36:18.894Z,99.90
2022-08-09T00:38:45.920Z,99.90
2022-08-09T00:44:16.317Z,99.90
2022-08-09T00:44:16.716Z,99.90
2022-08-09T00:46:57.221Z,99.90
2022-08-09T00:49:31.474Z,99.90
2022-08-09T00:52:01.971Z,99.90
2022-08-09T00:54:35.032Z,99.90
2022-08-09T00:57:02.828Z,99.90
2022-08-09T00:59:46.029Z,99.90
2022-08-09T01:02:17.171Z,99.90
2022-08-09T01:05:03.555Z,99.90
2022-08-09T01:08:00.517Z,99.90
2022-08-09T01:10:33.991Z,99.90
2022-08-09T01:13:00.516Z,99.90
2022-08-09T01:15:30.729Z,99.90
2022-08-09T01:18:30.556Z,99.90
2022-08-09T01:21:07.054Z,99.90
2022-08-09T01:24:00.839Z,99.90
2022-08-09T01:26:42.685Z,99.90
2022-08-09T01:29:15.363Z,99.90
2022-08-09T01:32:31.809Z,99.90
2022-08-09T01:34:31.260Z,99.90
2022-08-09T01:36:58.759Z,99.90
2022-08-09T01:39:26.265Z,99.90
2022-08-09T01:42:01.258Z,99.90
2022-08-09T01:44:31.218Z,99.90
2022-08-09T01:46:59.964Z,99.90
2022-08-09T01:49:27.970Z,99.90
2022-08-09T01:52:07.863Z,99.90
2022-08-09T01:54:43.722Z,99.90
2022-08-09T01:57:14.774Z,99.90
2022-08-09T01:59:51.853Z,99.90
2022-08-09T02:02:30.824Z,99.90
2022-08-09T02:05:04.750Z,99.90
2022-08-09T02:08:39.248Z,99.90
2022-08-09T02:10:29.869Z,99.90
2022-08-09T02:12:57.742Z,99.90
2022-08-09T02:15:27.083Z,99.90
2022-08-09T02:18:15.225Z,99.90
2022-08-09T02:20:45.050Z,99.90
2022-08-09T02:23:16.902Z,99.90
2022-08-09T02:25:52.480Z,99.90
2022-08-09T02:28:30.650Z,99.90
2022-08-09T02:31:05.935Z,99.90
2022-08-09T02:34:06.581Z,99.90
2022-08-09T02:36:31.190Z,99.90
2022-08-09T02:39:00.624Z,99.90
2022-08-09T02:41:31.436Z,99.90
2022-08-09T02:44:10.505Z,99.90
2022-08-09T02:46:47.667Z,99.90
2022-08-09T02:49:19.388Z,99.90
2022-08-09T02:51:57.224Z,99.90
2022-08-09T02:54:27.364Z,99.90
2022-08-09T02:56:57.066Z,99.90
2022-08-09T02:59:26.454Z,99.90
2022-08-09T03:02:06.370Z,99.90
2022-08-09T03:04:35.496Z,99.90
2022-08-09T03:07:12.368Z,99.90
2022-08-09T03:09:42.993Z,99.90
2022-08-09T03:12:13.275Z,99.90
2022-08-09T03:14:41.027Z,99.90
2022-08-09T03:17:08.270Z,99.90
2022-08-09T03:19:58.528Z,99.90
2022-08-09T03:22:31.101Z,99.90
2022-08-09T03:25:05.995Z,99.90
2022-08-09T03:27:47.144Z,99.90
2022-08-09T03:30:29.268Z,99.90
2022-08-09T03:33:00.696Z,99.90
2022-08-09T03:36:11.614Z,99.90
2022-08-09T03:38:16.059Z,99.90
2022-08-09T03:40:58.168Z,99.90
2022-08-09T03:43:25.281Z,99.90
2022-08-09T03:46:04.705Z,99.90
2022-08-09T03:48:51.783Z,99.90
2022-08-09T03:51:55.295Z,99.90
2022-08-09T03:54:11.124Z,99.90
2022-08-09T03:56:41.351Z,99.90
2022-08-09T03:59:17.041Z,99.90
2022-08-09T04:01:49.291Z,99.90
2022-08-09T04:04:16.801Z,99.90
2022-08-09T04:06:44.059Z,99.90
2022-08-09T04:09:41.656Z,99.90
2022-08-09T04:12:11.813Z,99.90
2022-08-09T04:15:01.385Z,99.90
2022-08-09T04:17:29.596Z,99.90
2022-08-09T04:19:56.514Z,99.90
2022-08-09T04:22:23.439Z,99.90
2022-08-09T04:24:50.207Z,99.90
2022-08-09T04:27:17.337Z,99.90
2022-08-09T04:29:50.090Z,99.90
2022-08-09T04:32:31.361Z,99.90
2022-08-09T04:35:01.365Z,99.90
2022-08-09T04:37:45.166Z,99.90
2022-08-09T04:40:19.270Z,99.90
2022-08-09T04:42:48.428Z,99.90
2022-08-09T04:45:16.385Z,99.90
2022-08-09T04:48:00.165Z,99.90
2022-08-09T04:50:34.803Z,99.90
2022-08-09T04:53:13.024Z,99.90
2022-08-09T04:55:52.581Z,99.90
2022-08-09T04:58:26.636Z,99.90
2022-08-09T05:00:54.561Z,99.90
2022-08-09T05:03:40.798Z,99.90
2022-08-09T05:06:25.827Z,99.90
2022-08-09T05:09:00.262Z,99.90
2022-08-09T05:11:32.393Z,99.90
2022-08-09T05:14:05.744Z,99.90
2022-08-09T05:16:33.855Z,99.90
2022-08-09T05:19:10.450Z,99.90
2022-08-09T05:21:47.452Z,99.90
2022-08-09T05:24:22.538Z,99.90
2022-08-09T05:26:51.278Z,99.90
2022-08-09T05:29:22.037Z,99.90
2022-08-09T05:31:58.890Z,99.90
2022-08-09T05:34:30.785Z,99.90
2022-08-09T05:37:06.286Z,99.90
2022-08-09T05:39:36.216Z,99.90
2022-08-09T05:42:09.931Z,99.90
2022-08-09T05:44:43.637Z,99.90
2022-08-09T05:47:10.307Z,99.90
2022-08-09T05:50:30.921Z,99.90
2022-08-09T05:52:24.731Z,99.90
2022-08-09T05:54:51.621Z,99.90
2022-08-09T05:57:19.286Z,99.90
2022-08-09T05:59:46.127Z,99.90
2022-08-09T06:02:17.088Z,99.90
2022-08-09T06:04:48.851Z,99.90
2022-08-09T06:07:21.198Z,99.90
2022-08-09T06:09:55.220Z,99.90
2022-08-09T06:12:29.970Z,99.90
2022-08-09T06:15:01.036Z,99.90
2022-08-09T06:17:40.239Z,99.90
2022-08-09T06:20:08.249Z,99.90
2022-08-09T06:22:35.569Z,99.90
2022-08-09T06:25:02.872Z,99.90
2022-08-09T06:27:42.649Z,99.90
2022-08-09T06:30:10.993Z,99.90
2022-08-09T06:32:59.458Z,99.90
2022-08-09T06:35:35.681Z,99.90
2022-08-09T06:38:15.974Z,99.90
2022-08-09T06:40:42.945Z,99.90
2022-08-09T06:43:10.502Z,99.90
2022-08-09T06:46:06.665Z,99.90
2022-08-09T06:48:30.153Z,99.90
2022-08-09T06:50:58.370Z,99.90
2022-08-09T06:53:24.982Z,99.90
2022-08-09T06:55:52.384Z,99.90
2022-08-09T07:00:52.289Z,99.90
2022-08-09T07:01:06.058Z,99.90
2022-08-09T07:03:39.515Z,99.90
2022-08-09T07:06:18.924Z,99.90
2022-08-09T07:08:46.701Z,99.90
2022-08-09T07:11:23.329Z,99.90
2022-08-09T07:14:04.471Z,99.90
2022-08-09T07:16:42.868Z,99.90
2022-08-09T07:19:23.070Z,99.90
2022-08-09T07:21:57.515Z,99.90
2022-08-09T07:24:32.197Z,99.90
2022-08-09T07:27:23.879Z,99.90
2022-08-09T07:29:53.731Z,99.90
2022-08-09T07:32:23.914Z,99.90
2022-08-09T07:35:01.151Z,99.90
2022-08-09T07:37:29.474Z,99.90
2022-08-09T07:39:56.170Z,99.90
2022-08-09T07:42:32.445Z,99.90
2022-08-09T07:45:02.565Z,99.90
2022-08-09T07:47:49.579Z,99.90
2022-08-09T07:50:20.663Z,99.90
2022-08-09T07:53:02.860Z,99.90
2022-08-09T07:55:41.776Z,99.90
2022-08-09T07:58:17.658Z,99.90
2022-08-09T08:00:58.646Z,99.90
2022-08-09T08:03:31.329Z,99.90
2022-08-09T08:05:58.575Z,99.90
2022-08-09T08:08:59.714Z,99.90
2022-08-09T08:12:10.141Z,99.90
2022-08-09T08:13:58.588Z,99.90
2022-08-09T08:16:29.502Z,99.90
2022-08-09T08:18:58.775Z,99.90
2022-08-09T08:21:25.412Z,99.90
2022-08-09T08:23:55.712Z,99.90
2022-08-09T08:26:26.328Z,99.90
2022-08-09T08:29:08.400Z,99.90
2022-08-09T08:31:56.441Z,99.90
2022-08-09T08:34:25.502Z,99.90
2022-08-09T08:36:52.263Z,99.90
2022-08-09T08:39:18.933Z,99.90
2022-08-09T08:41:51.696Z,99.90
2022-08-09T08:44:26.796Z,99.90
2022-08-09T08:47:03.304Z,99.90
2022-08-09T08:49:47.676Z,99.90
2022-08-09T08:52:52.718Z,99.90
2022-08-09T08:55:06.615Z,99.90
2022-08-09T08:57:34.686Z,99.90
2022-08-09T09:00:08.296Z,99.90
2022-08-09T09:02:44.539Z,99.90
2022-08-09T09:05:20.243Z,99.90
2022-08-09T09:08:00.886Z,99.90
2022-08-09T09:10:28.895Z,99.90
2022-08-09T09:12:55.996Z,99.90
2022-08-09T09:15:28.229Z,99.90
2022-08-09T09:17:55.550Z,99.90
2022-08-09T09:20:22.379Z,99.90
2022-08-09T09:22:56.751Z,99.90
2022-08-09T09:26:05.013Z,99.90
2022-08-09T09:28:38.910Z,99.90
2022-08-09T09:31:17.443Z,99.90
2022-08-09T09:34:14.211Z,99.90
2022-08-09T09:36:51.231Z,99.90
2022-08-09T09:39:23.313Z,99.90
2022-08-09T09:41:50.947Z,99.90
2022-08-09T09:44:31.558Z,99.90
2022-08-09T09:47:10.081Z,99.90
2022-08-09T09:50:07.313Z,99.90
2022-08-09T09:52:37.365Z,99.90
2022-08-09T09:55:24.161Z,99.90
2022-08-09T09:58:16.331Z,99.90
2022-08-09T10:00:54.299Z,99.90
2022-08-09T10:04:00.140Z,99.90
2022-08-09T10:06:32.391Z,99.90
2022-08-09T10:09:11.700Z,99.30
2022-08-09T10:12:12.532Z,98.90
2022-08-09T10:14:43.917Z,98.60
2022-08-09T10:17:39.854Z,98.80
2022-08-09T10:20:02.590Z,99.30
2022-08-09T10:22:33.040Z,98.60
2022-08-09T10:25:06.938Z,99.50
2022-08-09T10:27:45.117Z,98.60
2022-08-09T10:33:09.781Z,97.80
2022-08-09T10:35:56.851Z,97.80
2022-08-09T10:38:54.655Z,97.90
2022-08-09T10:41:14.964Z,98.40
2022-08-09T10:43:46.874Z,97.90
2022-08-09T10:46:26.809Z,98.70
2022-08-09T10:49:00.886Z,98.20
2022-08-09T10:51:40.926Z,98.20
2022-08-09T10:54:12.191Z,97.70
2022-08-09T10:56:39.972Z,97.40
2022-08-09T10:59:23.280Z,97.20
2022-08-09T11:03:11.987Z,97.30
2022-08-09T11:04:37.590Z,96.50
2022-08-09T11:07:22.320Z,96.30
2022-08-09T11:09:49.469Z,96.40
2022-08-09T11:12:20.206Z,95.80
2022-08-09T11:14:57.412Z,97.00
2022-08-09T11:17:27.279Z,96.80
2022-08-09T11:20:22.561Z,96.60
2022-08-09T11:22:56.782Z,96.30
2022-08-09T11:25:47.185Z,97.00
2022-08-09T11:28:35.199Z,95.30
2022-08-09T11:31:43.355Z,97.00
2022-08-09T11:34:41.597Z,96.90
2022-08-09T11:37:17.963Z,96.60
2022-08-09T11:40:03.894Z,97.00
2022-08-09T11:42:50.407Z,97.30
2022-08-09T11:45:21.930Z,97.00
2022-08-09T11:47:50.075Z,97.10
2022-08-09T11:50:55.787Z,97.70
2022-08-09T11:53:58.951Z,97.00
2022-08-09T11:56:02.805Z,97.30
2022-08-09T11:58:33.154Z,96.70
2022-08-09T12:01:01.584Z,96.70
2022-08-09T12:03:55.350Z,96.40
2022-08-09T12:06:18.191Z,96.40
2022-08-09T12:08:54.386Z,96.90
2022-08-09T12:11:22.083Z,95.70
2022-08-09T12:14:10.365Z,96.00
2022-08-09T12:16:40.086Z,96.00
2022-08-09T12:19:11.444Z,96.50
2022-08-09T12:21:50.243Z,96.90
2022-08-09T12:24:24.560Z,95.80
2022-08-09T12:29:15.301Z,95.10
2022-08-09T12:29:44.011Z,96.50
2022-08-09T12:32:25.677Z,96.00
2022-08-09T12:34:58.220Z,95.20
2022-08-09T12:37:50.569Z,96.00
2022-08-09T12:40:24.350Z,95.80
2022-08-09T12:42:51.864Z,95.80
2022-08-09T12:45:33.670Z,96.20
2022-08-09T12:48:05.619Z,95.40
2022-08-09T12:50:35.564Z,96.20
2022-08-09T12:53:08.835Z,95.70
2022-08-09T12:56:15.670Z,96.00
2022-08-09T12:58:30.717Z,95.40
2022-08-09T13:00:58.461Z,95.80
2022-08-09T13:03:53.528Z,96.50
2022-08-09T13:06:34.613Z,95.00
2022-08-09T13:09:07.901Z,95.40
2022-08-09T13:11:39.470Z,96.00
2022-08-09T13:14:40.761Z,94.30
2022-08-09T13:17:08.815Z,94.40
2022-08-09T13:20:08.902Z,95.00
2022-08-09T13:22:38.123Z,95.00
2022-08-09T13:25:13.708Z,91.70
2022-08-09T13:27:48.613Z,93.40
2022-08-09T13:30:49.400Z,93.50
2022-08-09T13:33:11.556Z,91.90
2022-08-09T13:36:38.449Z,93.80
2022-08-09T13:38:55.804Z,93.00
2022-08-09T13:41:51.858Z,89.10
2022-08-09T13:43:58.555Z,90.90
2022-08-09T13:47:16.159Z,90.40
2022-08-09T13:49:18.348Z,91.30
2022-08-09T13:51:58.679Z,88.90
2022-08-09T13:54:27.736Z,87.10
2022-08-09T13:56:57.064Z,89.20
2022-08-09T13:59:25.606Z,87.30
2022-08-09T14:01:56.041Z,87.60
2022-08-09T14:04:29.140Z,86.60
2022-08-09T14:07:00.527Z,88.40
2022-08-09T14:09:30.879Z,85.80
2022-08-09T14:12:01.979Z,82.00
2022-08-09T14:14:38.659Z,83.10
2022-08-09T14:17:12.123Z,86.10
2022-08-09T14:19:40.663Z,85.90
2022-08-09T14:22:07.213Z,86.80
2022-08-09T14:24:35.710Z,85.90
2022-08-09T14:27:19.882Z,85.70
2022-08-09T14:30:34.593Z,85.90
2022-08-09T14:32:34.285Z,86.10
2022-08-09T14:35:08.144Z,86.50
2022-08-09T14:37:41.214Z,87.90
2022-08-09T14:40:39.086Z,88.00
2022-08-09T14:43:08.379Z,85.40
2022-08-09T14:46:57.638Z,85.00
2022-08-09T14:48:21.663Z,85.80
2022-08-09T14:50:53.444Z,86.70
2022-08-09T14:53:21.669Z,86.30
2022-08-09T14:55:50.120Z,86.40
2022-08-09T14:58:17.360Z,87.60
2022-08-09T15:00:48.550Z,86.90
2022-08-09T15:03:20.137Z,87.70
2022-08-09T15:05:52.559Z,88.80
2022-08-09T15:08:23.904Z,88.30
2022-08-09T15:11:00.380Z,88.60
2022-08-09T15:13:47.844Z,87.20
2022-08-09T15:16:15.121Z,84.10
2022-08-09T15:18:41.712Z,84.80
2022-08-09T15:21:54.979Z,85.20
2022-08-09T15:24:05.774Z,84.60
2022-08-09T15:26:45.365Z,79.50
2022-08-09T15:30:55.937Z,79.30
2022-08-09T15:32:00.013Z,81.70
2022-08-09T15:34:34.418Z,79.10
2022-08-09T15:37:04.212Z,78.20
2022-08-09T15:39:34.681Z,79.90
2022-08-09T15:42:18.842Z,78.80
2022-08-09T15:44:45.817Z,79.70
2022-08-09T15:47:13.938Z,79.00
2022-08-09T15:49:41.240Z,78.10
2022-08-09T15:52:27.552Z,78.10
2022-08-09T15:54:54.335Z,77.20
2022-08-09T15:57:34.492Z,77.70
2022-08-09T16:00:09.515Z,76.00
2022-08-09T16:02:40.504Z,76.10
2022-08-09T16:05:09.197Z,77.70
2022-08-09T16:07:39.312Z,72.80
2022-08-09T16:10:11.434Z,77.00
2022-08-09T16:12:50.184Z,74.90
2022-08-09T16:16:04.629Z,72.90
2022-08-09T16:18:04.771Z,73.80
2022-08-09T16:20:31.339Z,73.80
2022-08-09T16:22:57.951Z,74.50
2022-08-09T16:25:37.042Z,73.50
2022-08-09T16:28:07.444Z,73.60
2022-08-09T16:30:34.000Z,74.50
2022-08-09T16:33:10.139Z,76.50
2022-08-09T16:35:57.475Z,72.70
2022-08-09T16:38:26.576Z,71.60
2022-08-09T16:40:53.357Z,73.90
2022-08-09T16:43:22.138Z,70.50
2022-08-09T16:45:53.751Z,73.80
2022-08-09T16:48:39.161Z,71.50
2022-08-09T16:51:13.499Z,72.20
2022-08-09T16:54:22.382Z,72.00
2022-08-09T16:56:32.141Z,72.80
2022-08-09T16:58:59.585Z,71.00
2022-08-09T17:01:28.830Z,71.50
2022-08-09T17:04:00.865Z,73.20
2022-08-09T17:06:31.765Z,72.90
2022-08-09T17:09:17.906Z,72.90
2022-08-09T17:11:51.250Z,71.60
2022-08-09T17:14:25.946Z,70.00
2022-08-09T17:17:00.051Z,70.90
2022-08-09T17:19:46.803Z,70.90
2022-08-09T17:22:24.640Z,71.30
2022-08-09T17:25:03.511Z,71.90
2022-08-09T17:27:30.979Z,73.00
2022-08-09T17:29:57.800Z,73.80
2022-08-09T17:32:26.672Z,74.70
2022-08-09T17:35:11.263Z,74.30
2022-08-09T17:38:11.325Z,74.40
2022-08-09T17:40:26.165Z,73.90
2022-08-09T17:42:55.593Z,74.70
2022-08-09T17:45:37.637Z,74.80
2022-08-09T17:48:13.495Z,74.90
2022-08-09T17:50:55.968Z,75.70
2022-08-09T17:53:23.365Z,76.10
2022-08-09T17:55:55.731Z,77.20
2022-08-09T17:58:27.025Z,77.60
2022-08-09T18:00:54.908Z,79.20
2022-08-09T18:03:23.587Z,79.10
2022-08-09T18:05:52.944Z,80.10
2022-08-09T18:08:21.846Z,79.80
2022-08-09T18:11:01.754Z,81.30
2022-08-09T18:13:40.691Z,80.60
2022-08-09T18:16:29.397Z,81.20
2022-08-09T18:18:57.997Z,81.00
2022-08-09T18:21:31.745Z,81.20
2022-08-09T18:24:11.362Z,81.40
2022-08-09T18:26:46.321Z,81.90
2022-08-09T18:30:36.115Z,82.10
2022-08-09T18:32:01.094Z,82.50
2022-08-09T18:34:31.472Z,82.40
2022-08-09T18:37:00.692Z,82.90
2022-08-09T18:39:32.733Z,84.00
2022-08-09T18:42:08.254Z,83.40
2022-08-09T18:44:35.999Z,84.00
2022-08-09T18:47:08.274Z,83.50
2022-08-09T18:49:46.316Z,84.60
2022-08-09T18:52:14.415Z,84.00
2022-08-09T18:54:52.379Z,84.30
2022-08-09T18:57:19.958Z,84.00
2022-08-09T18:59:54.456Z,84.30
2022-08-09T19:02:31.861Z,85.00
2022-08-09T19:05:04.197Z,84.80
2022-08-09T19:08:04.473Z,85.30
2022-08-09T19:10:37.592Z,85.50
2022-08-09T19:13:23.603Z,85.50
2022-08-09T19:15:56.578Z,85.50
2022-08-09T19:18:33.036Z,85.80
2022-08-09T19:21:01.615Z,86.10
2022-08-09T19:24:32.046Z,85.80
2022-08-09T19:26:16.023Z,85.60
2022-08-09T19:28:48.655Z,85.90
2022-08-09T19:31:16.813Z,86.30
2022-08-09T19:33:43.598Z,87.70
2022-08-09T19:36:13.316Z,86.60
2022-08-09T19:38:40.232Z,86.40
2022-08-09T19:41:06.785Z,87.00
2022-08-09T19:44:00.521Z,87.00
2022-08-09T19:46:34.251Z,86.90
2022-08-09T19:50:05.190Z,87.10
2022-08-09T19:51:55.334Z,87.30
2022-08-09T19:54:24.950Z,88.80
2022-08-09T19:56:52.322Z,88.60
2022-08-09T19:59:58.546Z,88.80
2022-08-09T20:02:17.364Z,88.40
2022-08-09T20:04:55.048Z,89.10
2022-08-09T20:07:22.627Z,89.80
2022-08-09T20:09:52.147Z,89.30
2022-08-09T20:12:30.017Z,90.40
2022-08-09T20:15:10.400Z,89.50
2022-08-09T20:17:54.499Z,90.00
2022-08-09T20:20:21.423Z,89.80
2022-08-09T20:22:48.793Z,90.40
2022-08-09T20:25:22.772Z,90.40
2022-08-09T20:27:49.758Z,90.10
2022-08-09T20:30:18.001Z,90.00
2022-08-09T20:32:52.425Z,90.60
2022-08-09T20:35:19.951Z,90.50
2022-08-09T20:38:23.877Z,90.40
2022-08-09T20:40:35.779Z,90.70
2022-08-09T20:43:12.155Z,90.70
2022-08-09T20:46:01.811Z,90.70
2022-08-09T20:48:32.544Z,91.10
2022-08-09T20:51:03.215Z,91.90
2022-08-09T20:53:37.355Z,91.60
2022-08-09T20:56:21.271Z,91.70
2022-08-09T20:58:54.515Z,92.00
2022-08-09T21:01:34.867Z,92.20
2022-08-09T21:05:52.735Z,91.90
2022-08-09T21:06:59.835Z,92.30
2022-08-09T21:09:57.056Z,92.40
2022-08-09T21:15:13.758Z,92.40
2022-08-09T21:18:20.931Z,92.40
2022-08-09T21:20:33.146Z,92.60
2022-08-09T21:23:02.209Z,92.70
2022-08-09T21:25:55.978Z,92.90
2022-08-09T21:28:34.771Z,92.90
2022-08-09T21:31:17.926Z,92.50
2022-08-09T21:33:51.369Z,93.20
2022-08-09T21:36:23.495Z,93.30
2022-08-09T21:38:57.511Z,93.10
2022-08-09T21:42:04.632Z,92.70
2022-08-09T21:44:32.983Z,92.70
2022-08-09T21:47:05.445Z,93.30
2022-08-09T21:49:40.197Z,92.90
2022-08-09T21:52:14.773Z,92.70
2022-08-09T21:54:59.517Z,93.20
2022-08-09T21:57:37.315Z,92.90
2022-08-09T22:00:33.382Z,92.90
2022-08-09T22:03:02.106Z,93.10
2022-08-09T22:05:37.308Z,93.30
2022-08-09T22:08:13.667Z,93.30
2022-08-09T22:11:50.563Z,93.30
2022-08-09T22:13:31.570Z,93.60
2022-08-09T22:16:03.524Z,93.60
2022-08-09T22:18:32.726Z,93.80
2022-08-09T22:21:00.334Z,93.50
2022-08-09T22:23:27.084Z,93.90
2022-08-09T22:26:05.616Z,93.50
2022-08-09T22:28:35.333Z,93.60
2022-08-09T22:31:10.052Z,94.10
2022-08-09T22:33:42.541Z,93.50
2022-08-09T22:36:19.345Z,93.60
2022-08-09T22:38:47.150Z,94.00
2022-08-09T22:41:13.708Z,93.80
2022-08-09T22:44:02.011Z,93.50
2022-08-09T22:48:11.234Z,94.20
2022-08-09T22:49:13.526Z,93.70
2022-08-09T22:51:49.289Z,94.00
2022-08-09T22:54:21.410Z,93.90
2022-08-09T22:56:48.173Z,93.90
2022-08-09T22:59:57.013Z,94.10
2022-08-09T23:02:07.912Z,93.80
2022-08-09T23:04:34.679Z,94.10
2022-08-09T23:08:21.038Z,93.80
2022-08-09T23:10:10.955Z,94.50
2022-08-09T23:12:37.520Z,94.10
2022-08-09T23:15:04.496Z,93.90
2022-08-09T23:17:31.275Z,94.10
2022-08-09T23:20:06.684Z,94.10
2022-08-09T23:22:34.228Z,93.90
2022-08-09T23:25:03.685Z,94.60
2022-08-09T23:27:30.221Z,94.60
2022-08-09T23:29:56.749Z,95.20
2022-08-09T23:32:23.338Z,94.40
2022-08-09T23:34:49.940Z,94.60
2022-08-09T23:37:17.139Z,94.80
2022-08-09T23:39:48.356Z,94.60
2022-08-09T23:42:15.229Z,94.50
2022-08-09T23:44:41.791Z,94.80
2022-08-09T23:47:08.327Z,94.70
2022-08-09T23:49:34.946Z,95.00
2022-08-09T23:52:01.640Z,94.60
2022-08-09T23:54:28.230Z,95.00
2022-08-09T23:56:58.131Z,95.10
2022-08-09T23:59:25.184Z,94.80
